createdAt,value
2022-08-16T00:02:23.133Z,96.20
2022-08-16T00:04:51.809Z,96.30
2022-08-16T00:07:20.813Z,96.30
2022-08-16T00:09:48.901Z,96.40
2022-08-16T00:12:21.502Z,96.40
2022-08-16T00:14:51.873Z,96.50
2022-08-16T00:17:25.511Z,96.60
2022-08-16T00:19:56.610Z,96.70
2022-08-16T00:22:25.823Z,96.80
2022-08-16T00:24:56.291Z,97.00
2022-08-16T00:27:25.758Z,96.90
2022-08-16T00:30:08.267Z,97.00
2022-08-16T00:32:37.318Z,96.80
2022-08-16T00:35:11.062Z,96.80
2022-08-16T00:37:57.688Z,96.90
2022-08-16T00:40:34.587Z,97.10
2022-08-16T00:43:12.078Z,97.30
2022-08-16T00:45:58.053Z,97.20
2022-08-16T00:48:31.969Z,97.40
2022-08-16T00:51:16.005Z,97.40
2022-08-16T00:53:45.775Z,97.30
2022-08-16T00:56:58.098Z,97.30
2022-08-16T00:59:11.974Z,97.40
2022-08-16T01:01:44.646Z,97.40
2022-08-16T01:04:29.245Z,97.40
2022-08-16T01:07:01.096Z,97.50
2022-08-16T01:09:33.696Z,97.50
2022-08-16T01:12:04.184Z,97.70
2022-08-16T01:14:43.552Z,97.80
2022-08-16T01:17:13.950Z,97.80
2022-08-16T01:19:46.191Z,97.80
2022-08-16T01:22:48.318Z,97.90
2022-08-16T01:25:15.850Z,97.80
2022-08-16T01:27:47.922Z,98.20
2022-08-16T01:30:21.885Z,98.10
2022-08-16T01:33:02.325Z,98.00
2022-08-16T01:35:46.914Z,98.00
2022-08-16T01:38:25.920Z,98.20
2022-08-16T01:41:03.496Z,98.20
2022-08-16T01:43:34.927Z,98.30
2022-08-16T01:46:29.887Z,98.30
2022-08-16T01:48:57.766Z,98.30
2022-08-16T01:51:28.589Z,98.30
2022-08-16T01:53:58.578Z,98.20
2022-08-16T01:56:31.146Z,98.30
2022-08-16T01:59:02.585Z,98.30
2022-08-16T02:01:33.348Z,98.30
2022-08-16T02:04:11.102Z,98.40
2022-08-16T02:06:46.774Z,98.50
2022-08-16T02:09:19.216Z,98.50
2022-08-16T02:11:53.672Z,98.60
2022-08-16T02:14:26.541Z,98.60
2022-08-16T02:16:57.369Z,98.70
2022-08-16T02:19:58.713Z,98.80
2022-08-16T02:22:34.305Z,98.70
2022-08-16T02:25:10.079Z,98.70
2022-08-16T02:27:41.204Z,98.70
2022-08-16T02:30:35.733Z,98.70
2022-08-16T02:33:03.745Z,98.70
2022-08-16T02:35:32.365Z,98.70
2022-08-16T02:38:01.757Z,98.80
2022-08-16T02:40:37.320Z,98.80
2022-08-16T02:43:07.891Z,98.80
2022-08-16T02:45:36.679Z,98.90
2022-08-16T02:48:29.396Z,99.20
2022-08-16T02:51:08.071Z,99.10
2022-08-16T02:53:43.222Z,99.00
2022-08-16T02:56:14.637Z,99.10
2022-08-16T02:58:45.267Z,99.10
2022-08-16T03:01:24.825Z,99.20
2022-08-16T03:04:40.746Z,99.10
2022-08-16T03:06:56.346Z,99.10
2022-08-16T03:09:37.935Z,99.40
2022-08-16T03:12:07.222Z,99.60
2022-08-16T03:14:37.685Z,99.30
2022-08-16T03:17:07.262Z,99.30
2022-08-16T03:19:47.023Z,99.40
